Time,TemperatureF,DewpointF,PressureIn,WindDirection,WindDirectionDegrees,WindSpeedMPH,WindSpeedGustMPH,Humidity,HourlyPrecipIn,Conditions,Clouds,dailyrainin,SoftwareType,DateUTC
2013-05-21 00:01:00,68.8,68.5,29.99,SSW,205,0.0,0.0,99,0.00,,,0.11,LWC V2.00 B2112,2013-05-21 04:01:00,
2013-05-21 00:06:00,68.8,68.5,29.99,SSW,205,0.0,0.0,99,0.00,,,0.11,LWC V2.00 B2112,2013-05-21 04:06:00,
2013-05-21 00:11:00,68.8,68.5,29.99,SSW,205,0.0,0.0,99,0.00,,,0.11,LWC V2.00 B2112,2013-05-21 04:11:00,
2013-05-21 00:16:00,68.6,68.3,29.99,SSW,205,0.0,0.0,99,0.00,,,0.11,LWC V2.00 B2112,2013-05-21 04:16:00,
2013-05-21 00:21:00,68.6,68.3,29.99,SSW,205,0.0,0.0,99,0.00,,,0.11,LWC V2.00 B2112,2013-05-21 04:21:00,
2013-05-21 00:26:00,68.6,68.3,29.99,SSW,205,0.0,0.0,99,0.00,,,0.11,LWC V2.00 B2112,2013-05-21 04:26:00,
2013-05-21 00:31:00,68.6,68.3,29.99,SSW,205,0.0,0.0,99,0.00,,,0.11,LWC V2.00 B2112,2013-05-21 04:31:00,
2013-05-21 00:36:00,68.6,68.3,29.99,SSW,205,0.0,0.0,99,0.00,,,0.11,LWC V2.00 B2112,2013-05-21 04:36:00,
2013-05-21 00:41:00,68.6,68.3,29.99,SSW,205,0.0,0.0,99,0.00,,,0.11,LWC V2.00 B2112,2013-05-21 04:41:00,
2013-05-21 00:46:00,68.6,68.3,29.99,SSW,205,0.0,0.0,99,0.00,,,0.11,LWC V2.00 B2112,2013-05-21 04:46:00,
2013-05-21 00:51:00,68.6,68.3,29.99,SSW,205,0.0,0.0,99,0.00,,,0.11,LWC V2.00 B2112,2013-05-21 04:51:00,
2013-05-21 00:56:00,68.6,68.3,29.99,SSW,205,0.0,0.0,99,0.00,,,0.11,LWC V2.00 B2112,2013-05-21 04:56:00,
2013-05-21 01:01:00,68.6,68.3,29.99,SSW,205,0.0,0.0,99,0.00,,,0.11,LWC V2.00 B2112,2013-05-21 05:01:00,
2013-05-21 01:06:00,68.6,68.3,29.99,SSW,205,0.0,0.0,99,0.00,,,0.11,LWC V2.00 B2112,2013-05-21 05:06:00,
2013-05-21 01:11:00,68.6,68.3,29.99,SSW,205,0.0,0.0,99,0.00,,,0.11,LWC V2.00 B2112,2013-05-21 05:11:00,
2013-05-21 01:16:00,68.6,68.3,29.99,SSW,205,0.0,0.0,99,0.00,,,0.11,LWC V2.00 B2112,2013-05-21 05:16:00,
2013-05-21 01:21:00,68.6,68.3,29.99,SSW,205,0.0,0.0,99,0.00,,,0.11,LWC V2.00 B2112,2013-05-21 05:21:00,
2013-05-21 01:26:00,68.6,68.3,29.98,SSW,205,0.0,0.0,99,0.00,,,0.11,LWC V2.00 B2112,2013-05-21 05:26:00,
2013-05-21 01:31:00,68.6,68.3,29.98,SSW,205,0.0,0.0,99,0.00,,,0.11,LWC V2.00 B2112,2013-05-21 05:31:00,
2013-05-21 01:36:00,68.6,68.3,29.98,SSW,205,0.0,0.0,99,0.00,,,0.11,LWC V2.00 B2112,2013-05-21 05:36:00,
2013-05-21 01:41:00,68.6,68.3,29.98,SSW,205,0.0,0.0,99,0.00,,,0.11,LWC V2.00 B2112,2013-05-21 05:41:00,
2013-05-21 01:46:00,68.6,68.3,29.98,SSW,205,0.0,0.0,99,0.00,,,0.11,LWC V2.00 B2112,2013-05-21 05:46:00,
2013-05-21 01:51:00,68.6,68.3,29.98,SSW,200,0.0,0.0,99,0.00,,,0.11,LWC V2.00 B2112,2013-05-21 05:51:00,
2013-05-21 01:56:00,68.6,68.3,29.98,SSW,200,0.0,0.0,99,0.00,,,0.11,LWC V2.00 B2112,2013-05-21 05:56:00,
2013-05-21 02:01:00,68.6,68.3,29.98,SSW,200,0.0,0.0,99,0.00,,,0.11,LWC V2.00 B2112,2013-05-21 06:01:00,
2013-05-21 02:06:00,68.6,68.3,29.98,SSW,200,0.0,0.0,99,0.00,,,0.11,LWC V2.00 B2112,2013-05-21 06:06:00,
2013-05-21 02:11:00,68.6,68.3,29.98,SSW,200,0.0,0.0,99,0.00,,,0.11,LWC V2.00 B2112,2013-05-21 06:11:00,
2013-05-21 02:16:00,68.6,68.3,29.98,SSW,200,0.0,0.0,99,0.00,,,0.11,LWC V2.00 B2112,2013-05-21 06:16:00,
2013-05-21 02:21:00,68.6,68.3,29.98,SSW,200,0.0,0.0,99,0.00,,,0.11,LWC V2.00 B2112,2013-05-21 06:21:00,
2013-05-21 02:27:00,68.6,68.3,29.98,SSW,200,0.0,0.0,99,0.00,,,0.11,LWC V2.00 B2112,2013-05-21 06:27:00,
2013-05-21 02:32:00,68.6,68.3,29.98,SSW,200,0.0,0.0,99,0.00,,,0.11,LWC V2.00 B2112,2013-05-21 06:32:00,
2013-05-21 02:37:00,68.6,68.3,29.98,SSW,200,0.0,0.0,99,0.00,,,0.11,LWC V2.00 B2112,2013-05-21 06:37:00,
2013-05-21 02:42:00,68.6,68.3,29.97,SSW,200,0.0,0.0,99,0.00,,,0.11,LWC V2.00 B2112,2013-05-21 06:42:00,
2013-05-21 02:47:00,68.6,68.6,29.97,SSW,200,0.0,0.0,100,0.00,,,0.11,LWC V2.00 B2112,2013-05-21 06:47:00,
2013-05-21 02:52:00,68.6,68.3,29.97,SSW,200,0.0,0.0,99,0.00,,,0.11,LWC V2.00 B2112,2013-05-21 06:52:00,
2013-05-21 02:57:00,68.6,68.6,29.97,SSW,200,0.0,0.0,100,0.00,,,0.11,LWC V2.00 B2112,2013-05-21 06:57:00,
2013-05-21 03:02:00,68.6,68.6,29.97,SSW,200,0.0,0.0,100,0.00,,,0.11,LWC V2.00 B2112,2013-05-21 07:02:00,
2013-05-21 03:07:00,68.6,68.6,29.97,SSW,200,0.0,0.0,100,0.00,,,0.11,LWC V2.00 B2112,2013-05-21 07:07:00,
2013-05-21 03:12:00,68.6,68.6,29.97,SSW,200,0.0,0.0,100,0.00,,,0.11,LWC V2.00 B2112,2013-05-21 07:12:00,
2013-05-21 03:17:00,68.6,68.6,29.97,SSW,200,0.0,0.0,100,0.00,,,0.11,LWC V2.00 B2112,2013-05-21 07:17:00,
2013-05-21 03:22:00,68.6,68.6,29.97,SSW,200,0.0,0.0,100,0.00,,,0.11,LWC V2.00 B2112,2013-05-21 07:22:00,
2013-05-21 03:27:00,68.6,68.6,29.97,SSW,200,0.0,0.0,100,0.00,,,0.11,LWC V2.00 B2112,2013-05-21 07:27:00,
2013-05-21 03:32:00,68.6,68.6,29.97,SSW,200,0.0,0.0,100,0.00,,,0.11,LWC V2.00 B2112,2013-05-21 07:32:00,
2013-05-21 03:37:00,68.6,68.6,29.97,SSW,200,0.0,0.0,100,0.00,,,0.11,LWC V2.00 B2112,2013-05-21 07:37:00,
2013-05-21 03:42:00,68.6,68.6,29.97,SSW,200,0.0,0.0,100,0.00,,,0.11,LWC V2.00 B2112,2013-05-21 07:42:00,
2013-05-21 03:47:00,68.6,68.6,29.97,SSW,200,0.0,0.0,100,0.00,,,0.11,LWC V2.00 B2112,2013-05-21 07:47:00,
2013-05-21 03:52:00,68.6,68.6,29.97,SSW,200,0.0,0.0,100,0.00,,,0.11,LWC V2.00 B2112,2013-05-21 07:52:00,
2013-05-21 03:57:00,68.6,68.6,29.97,SSW,200,0.0,0.0,100,0.00,,,0.11,LWC V2.00 B2112,2013-05-21 07:57:00,
2013-05-21 04:02:00,68.4,68.4,29.97,SSW,200,0.0,0.0,100,0.00,,,0.11,LWC V2.00 B2112,2013-05-21 08:02:00,
2013-05-21 04:07:00,68.4,68.4,29.97,SSW,200,0.0,0.0,100,0.00,,,0.11,LWC V2.00 B2112,2013-05-21 08:07:00,
2013-05-21 04:12:00,68.4,68.4,29.97,SSW,200,0.0,0.0,100,0.00,,,0.11,LWC V2.00 B2112,2013-05-21 08:12:00,
2013-05-21 04:17:00,68.4,68.4,29.97,SSW,200,0.0,0.0,100,0.00,,,0.11,LWC V2.00 B2112,2013-05-21 08:17:00,
2013-05-21 04:22:00,68.4,68.4,29.97,SSW,200,0.0,0.0,100,0.00,,,0.11,LWC V2.00 B2112,2013-05-21 08:22:00,
2013-05-21 04:27:00,68.4,68.4,29.97,SSW,200,0.0,0.0,100,0.00,,,0.11,LWC V2.00 B2112,2013-05-21 08:27:00,
2013-05-21 04:32:00,68.4,68.4,29.97,SSW,200,0.0,0.0,100,0.00,,,0.11,LWC V2.00 B2112,2013-05-21 08:32:00,
2013-05-21 04:37:00,68.4,68.4,29.97,SSW,200,0.0,0.0,100,0.00,,,0.11,LWC V2.00 B2112,2013-05-21 08:37:00,
2013-05-21 04:42:00,68.3,68.3,29.97,SSW,200,0.0,0.0,100,0.00,,,0.11,LWC V2.00 B2112,2013-05-21 08:42:00,
2013-05-21 04:47:00,68.4,68.4,29.97,SSW,200,0.0,0.0,100,0.00,,,0.11,LWC V2.00 B2112,2013-05-21 08:47:00,
2013-05-21 04:52:00,68.3,68.3,29.97,SSW,200,0.0,0.0,100,0.00,,,0.11,LWC V2.00 B2112,2013-05-21 08:52:00,
2013-05-21 04:57:00,68.3,68.3,29.97,SSW,200,0.0,0.0,100,0.00,,,0.11,LWC V2.00 B2112,2013-05-21 08:57:00,
2013-05-21 05:02:00,68.3,68.3,29.97,SSW,200,0.0,0.0,100,0.00,,,0.11,LWC V2.00 B2112,2013-05-21 09:02:00,
2013-05-21 05:07:00,68.3,68.3,29.97,SSW,200,0.0,0.0,100,0.00,,,0.11,LWC V2.00 B2112,2013-05-21 09:07:00,
2013-05-21 05:12:00,68.1,68.1,29.97,SSW,200,0.0,0.0,100,0.00,,,0.11,LWC V2.00 B2112,2013-05-21 09:12:00,
2013-05-21 05:17:00,68.1,68.1,29.97,SSW,200,0.0,0.0,100,0.00,,,0.11,LWC V2.00 B2112,2013-05-21 09:17:00,
2013-05-21 05:22:00,68.1,68.1,29.97,SSW,200,0.0,0.0,100,0.00,,,0.11,LWC V2.00 B2112,2013-05-21 09:22:00,
2013-05-21 05:27:00,68.3,68.3,29.98,SSW,200,0.0,0.0,100,0.00,,,0.11,LWC V2.00 B2112,2013-05-21 09:27:00,
2013-05-21 05:32:00,68.3,68.3,29.98,SSW,200,0.0,0.0,100,0.00,,,0.11,LWC V2.00 B2112,2013-05-21 09:32:00,
2013-05-21 05:37:00,68.3,68.3,29.98,SSW,200,0.0,0.0,100,0.00,,,0.11,LWC V2.00 B2112,2013-05-21 09:37:00,
2013-05-21 05:42:00,68.3,68.3,29.98,SSW,200,0.0,0.0,100,0.00,,,0.11,LWC V2.00 B2112,2013-05-21 09:42:00,
2013-05-21 05:47:00,68.3,68.3,29.98,SSW,200,0.0,0.0,100,0.00,,,0.11,LWC V2.00 B2112,2013-05-21 09:47:00,
2013-05-21 05:52:00,68.1,68.1,29.98,SSW,200,0.0,0.0,100,0.00,,,0.11,LWC V2.00 B2112,2013-05-21 09:52:00,
2013-05-21 05:57:00,68.3,68.3,29.99,SSW,200,0.0,0.0,100,0.00,,,0.11,LWC V2.00 B2112,2013-05-21 09:57:00,
2013-05-21 06:02:00,68.3,68.3,29.99,SSW,200,0.0,0.0,100,0.00,,,0.11,LWC V2.00 B2112,2013-05-21 10:02:00,
2013-05-21 06:07:00,68.1,68.1,29.99,SSW,200,0.0,0.0,100,0.00,,,0.11,LWC V2.00 B2112,2013-05-21 10:07:00,
2013-05-21 06:12:00,68.1,68.1,29.99,SSW,200,0.0,0.0,100,0.00,,,0.11,LWC V2.00 B2112,2013-05-21 10:12:00,
2013-05-21 06:17:00,68.1,68.1,29.99,SSW,200,0.0,0.0,100,0.00,,,0.11,LWC V2.00 B2112,2013-05-21 10:17:00,
2013-05-21 06:22:00,68.1,68.1,29.99,SSW,200,0.0,0.0,100,0.00,,,0.11,LWC V2.00 B2112,2013-05-21 10:22:00,
2013-05-21 06:27:00,68.1,68.1,29.99,SSW,200,0.0,0.0,100,0.00,,,0.11,LWC V2.00 B2112,2013-05-21 10:27:00,
2013-05-21 06:32:00,68.1,68.1,29.99,SSW,200,0.0,0.0,100,0.00,,,0.11,LWC V2.00 B2112,2013-05-21 10:32:00,
2013-05-21 06:37:00,68.1,68.1,29.99,SSW,200,0.0,0.0,100,0.00,,,0.11,LWC V2.00 B2112,2013-05-21 10:37:00,
2013-05-21 06:42:00,68.1,68.1,30.00,SSW,200,0.0,0.0,100,0.00,,,0.11,LWC V2.00 B2112,2013-05-21 10:42:00,
2013-05-21 06:47:00,68.1,68.1,30.00,SSW,200,0.0,0.0,100,0.00,,,0.11,LWC V2.00 B2112,2013-05-21 10:47:00,
2013-05-21 06:52:00,68.1,68.1,30.00,SSW,200,0.0,0.0,100,0.00,,,0.11,LWC V2.00 B2112,2013-05-21 10:52:00,
2013-05-21 06:57:00,68.3,68.3,30.00,SSW,200,0.0,0.0,100,0.00,,,0.11,LWC V2.00 B2112,2013-05-21 10:57:00,
2013-05-21 07:02:00,68.3,68.3,30.00,SSW,200,0.0,0.0,100,0.00,,,0.11,LWC V2.00 B2112,2013-05-21 11:02:00,
2013-05-21 07:07:00,68.3,68.3,30.00,SSW,200,0.0,0.0,100,0.00,,,0.11,LWC V2.00 B2112,2013-05-21 11:07:00,
2013-05-21 07:12:00,68.3,68.3,30.00,SSW,200,0.0,0.0,100,0.00,,,0.11,LWC V2.00 B2112,2013-05-21 11:12:00,
2013-05-21 07:17:00,68.4,68.4,30.00,SSW,200,0.0,0.0,100,0.00,,,0.11,LWC V2.00 B2112,2013-05-21 11:17:00,
2013-05-21 07:22:00,68.4,68.4,30.00,SSW,200,0.0,0.0,100,0.00,,,0.11,LWC V2.00 B2112,2013-05-21 11:22:00,
2013-05-21 07:27:00,68.4,68.4,30.00,SSW,200,0.0,0.0,100,0.00,,,0.11,LWC V2.00 B2112,2013-05-21 11:27:00,
2013-05-21 07:32:00,68.4,68.4,30.00,SSW,200,0.0,0.0,100,0.00,,,0.11,LWC V2.00 B2112,2013-05-21 11:32:00,
2013-05-21 07:37:00,68.4,68.4,30.00,SSW,200,0.0,0.0,100,0.00,,,0.11,LWC V2.00 B2112,2013-05-21 11:37:00,
2013-05-21 07:42:00,68.6,68.6,30.00,SSW,200,0.0,0.0,100,0.00,,,0.11,LWC V2.00 B2112,2013-05-21 11:42:00,
2013-05-21 07:47:00,68.6,68.6,30.00,SSW,200,0.0,0.0,100,0.00,,,0.11,LWC V2.00 B2112,2013-05-21 11:47:00,
2013-05-21 07:52:00,68.8,68.8,30.00,SSW,200,0.0,0.0,100,0.00,,,0.11,LWC V2.00 B2112,2013-05-21 11:52:00,
2013-05-21 07:57:00,68.8,68.8,30.00,SSW,200,0.0,0.0,100,0.00,,,0.11,LWC V2.00 B2112,2013-05-21 11:57:00,
2013-05-21 08:02:00,68.9,68.9,30.00,SSW,200,0.0,0.0,100,0.00,,,0.11,LWC V2.00 B2112,2013-05-21 12:02:00,
2013-05-21 08:07:00,68.9,68.9,30.00,SSW,200,0.0,0.0,100,0.00,,,0.11,LWC V2.00 B2112,2013-05-21 12:07:00,
2013-05-21 08:12:00,68.9,68.9,30.00,SSW,200,0.0,0.0,100,0.00,,,0.11,LWC V2.00 B2112,2013-05-21 12:12:00,
2013-05-21 08:17:00,68.9,68.9,30.00,SSW,200,0.0,0.0,100,0.00,,,0.11,LWC V2.00 B2112,2013-05-21 12:17:00,
2013-05-21 08:22:00,69.1,69.1,30.00,SSW,200,0.0,0.0,100,0.00,,,0.11,LWC V2.00 B2112,2013-05-21 12:22:00,
2013-05-21 08:27:00,69.1,69.1,30.00,SSW,200,0.0,0.0,100,0.00,,,0.00,LWC V2.00 B2112,2013-05-21 12:27:00,
2013-05-21 08:32:00,69.1,69.1,30.00,SSW,200,0.0,0.0,100,0.00,,,0.00,LWC V2.00 B2112,2013-05-21 12:32:00,
2013-05-21 08:37:00,69.3,69.3,30.00,SSW,197,0.0,0.0,100,0.00,,,0.00,LWC V2.00 B2112,2013-05-21 12:37:00,
2013-05-21 08:42:00,69.3,69.3,30.00,SSW,197,0.0,0.0,100,0.00,,,0.00,LWC V2.00 B2112,2013-05-21 12:42:00,
2013-05-21 08:47:00,69.3,69.3,30.00,SSW,197,0.0,0.0,100,0.00,,,0.00,LWC V2.00 B2112,2013-05-21 12:47:00,
2013-05-21 08:52:00,69.4,69.4,30.00,SSW,197,0.0,0.0,100,0.00,,,0.00,LWC V2.00 B2112,2013-05-21 12:52:00,
2013-05-21 08:57:00,69.4,69.4,30.00,SSW,197,0.0,0.0,100,0.00,,,0.00,LWC V2.00 B2112,2013-05-21 12:57:00,
2013-05-21 09:02:00,69.6,69.6,30.00,SSW,197,0.0,0.0,100,0.00,,,0.00,LWC V2.00 B2112,2013-05-21 13:02:00,
2013-05-21 09:07:00,69.8,69.8,30.00,SSW,197,0.0,0.0,100,0.00,,,0.00,LWC V2.00 B2112,2013-05-21 13:07:00,
2013-05-21 09:12:00,69.8,69.8,30.00,SSW,197,0.0,0.0,100,0.00,,,0.00,LWC V2.00 B2112,2013-05-21 13:12:00,
2013-05-21 09:17:00,69.9,69.9,30.00,SSW,197,0.0,0.0,100,0.00,,,0.00,LWC V2.00 B2112,2013-05-21 13:17:00,
2013-05-21 09:22:00,69.9,69.9,30.00,SSW,197,0.0,0.0,100,0.00,,,0.00,LWC V2.00 B2112,2013-05-21 13:22:00,
2013-05-21 09:27:00,70.1,70.1,30.01,SSW,197,0.0,0.0,100,0.00,,,0.00,LWC V2.00 B2112,2013-05-21 13:27:00,
2013-05-21 09:32:00,70.1,70.1,30.01,SSW,197,0.0,0.0,100,0.00,,,0.00,LWC V2.00 B2112,2013-05-21 13:32:00,
2013-05-21 09:37:00,70.3,70.3,30.01,SSW,197,0.0,0.0,100,0.00,,,0.00,LWC V2.00 B2112,2013-05-21 13:37:00,
2013-05-21 09:42:00,70.4,70.4,30.00,SSW,197,0.0,0.0,100,0.00,,,0.00,LWC V2.00 B2112,2013-05-21 13:42:00,
2013-05-21 09:47:00,70.4,70.4,30.00,SSW,197,0.0,0.0,100,0.00,,,0.00,LWC V2.00 B2112,2013-05-21 13:47:00,
2013-05-21 09:52:00,70.6,70.6,30.00,SSW,197,0.0,0.0,100,0.00,,,0.00,LWC V2.00 B2112,2013-05-21 13:52:00,
2013-05-21 09:57:00,70.8,70.8,30.00,SSW,197,0.0,0.0,100,0.00,,,0.00,LWC V2.00 B2112,2013-05-21 13:57:00,
2013-05-21 10:02:00,70.8,70.8,30.00,SSW,197,0.0,0.0,100,0.00,,,0.00,LWC V2.00 B2112,2013-05-21 14:02:00,
2013-05-21 10:07:00,70.8,70.8,30.00,SSW,197,0.0,0.0,100,0.00,,,0.00,LWC V2.00 B2112,2013-05-21 14:07:00,
2013-05-21 10:12:00,70.8,70.8,30.00,SSW,197,0.0,0.0,100,0.00,,,0.00,LWC V2.00 B2112,2013-05-21 14:12:00,
2013-05-21 10:17:00,70.8,70.8,30.00,SSW,197,0.0,0.0,100,0.00,,,0.00,LWC V2.00 B2112,2013-05-21 14:17:00,
2013-05-21 10:22:00,70.9,70.9,30.00,SSW,197,0.0,0.0,100,0.00,,,0.00,LWC V2.00 B2112,2013-05-21 14:22:00,
2013-05-21 10:27:00,71.1,71.1,30.00,SSW,197,0.0,0.0,100,0.00,,,0.00,LWC V2.00 B2112,2013-05-21 14:27:00,
2013-05-21 10:32:00,71.3,71.0,30.00,SSW,197,0.0,0.0,99,0.00,,,0.00,LWC V2.00 B2112,2013-05-21 14:32:00,
2013-05-21 10:37:00,71.6,71.6,30.00,SSW,197,0.0,0.0,100,0.00,,,0.00,LWC V2.00 B2112,2013-05-21 14:37:00,
2013-05-21 10:42:00,72.1,72.1,30.00,SSW,197,0.0,0.0,100,0.00,,,0.00,LWC V2.00 B2112,2013-05-21 14:42:00,
2013-05-21 10:47:00,72.1,71.8,30.00,SSW,196,0.0,0.0,99,0.00,,,0.00,LWC V2.00 B2112,2013-05-21 14:47:00,
2013-05-21 10:52:00,72.3,71.7,30.00,SSW,196,0.0,0.0,98,0.00,,,0.00,LWC V2.00 B2112,2013-05-21 14:52:00,
2013-05-21 10:57:00,72.3,71.4,30.00,SSW,196,0.0,0.0,97,0.00,,,0.00,LWC V2.00 B2112,2013-05-21 14:57:00,
2013-05-21 11:02:00,72.5,71.3,30.00,SSW,196,0.0,0.0,96,0.00,,,0.00,LWC V2.00 B2112,2013-05-21 15:02:00,
2013-05-21 11:07:00,72.8,71.3,30.00,SSW,196,0.0,0.0,95,0.00,,,0.00,LWC V2.00 B2112,2013-05-21 15:07:00,
2013-05-21 11:12:00,73.0,71.2,30.00,ENE,68,0.0,0.0,94,0.00,,,0.00,LWC V2.00 B2112,2013-05-21 15:12:00,
2013-05-21 11:17:00,73.3,71.1,30.00,ENE,68,0.0,0.0,93,0.00,,,0.00,LWC V2.00 B2112,2013-05-21 15:17:00,
2013-05-21 11:22:00,73.5,71.3,30.00,ENE,68,0.0,0.0,93,0.00,,,0.00,LWC V2.00 B2112,2013-05-21 15:22:00,
2013-05-21 11:27:00,73.9,71.4,30.00,ENE,68,0.0,0.0,92,0.00,,,0.00,LWC V2.00 B2112,2013-05-21 15:27:00,
2013-05-21 11:32:00,74.0,71.8,30.00,ENE,68,0.0,0.0,93,0.00,,,0.00,LWC V2.00 B2112,2013-05-21 15:32:00,
2013-05-21 11:37:00,74.2,71.7,30.00,ENE,68,0.0,0.0,92,0.00,,,0.00,LWC V2.00 B2112,2013-05-21 15:37:00,
2013-05-21 11:42:00,74.2,71.4,30.00,ENE,68,0.0,0.0,91,0.00,,,0.00,LWC V2.00 B2112,2013-05-21 15:42:00,
2013-05-21 11:47:00,74.4,71.3,30.00,ENE,68,0.0,0.0,90,0.00,,,0.00,LWC V2.00 B2112,2013-05-21 15:47:00,
2013-05-21 11:52:00,74.4,70.3,30.00,ENE,68,0.0,0.0,87,0.00,,,0.00,LWC V2.00 B2112,2013-05-21 15:52:00,
2013-05-21 11:58:00,74.6,70.5,30.00,ENE,68,0.0,0.0,87,0.00,,,0.00,LWC V2.00 B2112,2013-05-21 15:58:00,
2013-05-21 12:03:00,74.9,71.4,30.00,ENE,68,0.0,0.0,89,0.00,,,0.00,LWC V2.00 B2112,2013-05-21 16:03:00,
2013-05-21 12:08:00,75.1,71.6,30.00,ENE,68,0.0,0.0,89,0.00,,,0.00,LWC V2.00 B2112,2013-05-21 16:08:00,
2013-05-21 12:13:00,75.4,71.9,29.99,ENE,68,0.0,0.0,89,0.00,,,0.00,LWC V2.00 B2112,2013-05-21 16:13:00,
2013-05-21 12:18:00,75.4,71.6,29.99,ENE,68,0.0,0.0,88,0.00,,,0.00,LWC V2.00 B2112,2013-05-21 16:18:00,
2013-05-21 12:23:00,75.8,72.0,29.99,ENE,68,0.0,0.0,88,0.00,,,0.00,LWC V2.00 B2112,2013-05-21 16:23:00,
2013-05-21 12:28:00,76.0,71.8,29.99,ENE,68,0.0,0.0,87,0.00,,,0.00,LWC V2.00 B2112,2013-05-21 16:28:00,
2013-05-21 12:33:00,76.1,71.9,29.99,ENE,68,0.0,0.0,87,0.00,,,0.00,LWC V2.00 B2112,2013-05-21 16:33:00,
2013-05-21 12:38:00,76.0,71.2,29.99,ENE,68,0.0,0.0,85,0.00,,,0.00,LWC V2.00 B2112,2013-05-21 16:38:00,
2013-05-21 12:43:00,75.8,71.0,29.99,ENE,68,0.0,0.0,85,0.00,,,0.00,LWC V2.00 B2112,2013-05-21 16:43:00,
2013-05-21 12:48:00,75.8,71.0,29.99,ENE,68,0.0,0.0,85,0.00,,,0.00,LWC V2.00 B2112,2013-05-21 16:48:00,
2013-05-21 12:53:00,76.0,71.5,29.99,ENE,68,0.0,0.0,86,0.00,,,0.00,LWC V2.00 B2112,2013-05-21 16:53:00,
2013-05-21 12:58:00,76.3,71.8,29.98,ENE,68,0.0,0.0,86,0.00,,,0.00,LWC V2.00 B2112,2013-05-21 16:58:00,
2013-05-21 13:03:00,76.7,70.0,29.98,ENE,68,0.0,0.0,80,0.00,,,0.00,LWC V2.00 B2112,2013-05-21 17:03:00,
2013-05-21 13:08:00,77.4,70.7,29.98,NE,56,0.0,0.0,80,0.00,,,0.00,LWC V2.00 B2112,2013-05-21 17:08:00,
2013-05-21 13:13:00,78.8,71.3,29.97,NE,56,0.0,0.0,78,0.00,,,0.00,LWC V2.00 B2112,2013-05-21 17:13:00,
2013-05-21 13:18:00,79.2,71.0,29.97,NE,53,0.0,0.0,76,0.00,,,0.00,LWC V2.00 B2112,2013-05-21 17:18:00,
2013-05-21 13:23:00,79.4,70.8,29.97,East,82,0.0,2.0,75,0.00,,,0.00,LWC V2.00 B2112,2013-05-21 17:23:00,
2013-05-21 13:28:00,79.8,70.8,29.96,East,82,0.0,0.0,74,0.00,,,0.00,LWC V2.00 B2112,2013-05-21 17:28:00,
2013-05-21 13:33:00,80.3,70.0,29.96,NE,55,0.0,0.0,71,0.00,,,0.00,LWC V2.00 B2112,2013-05-21 17:33:00,
2013-05-21 13:38:00,80.1,70.2,29.96,NNE,15,0.0,1.0,72,0.00,,,0.00,LWC V2.00 B2112,2013-05-21 17:38:00,
2013-05-21 13:43:00,79.8,71.5,29.96,NNE,15,0.0,0.0,76,0.00,,,0.00,LWC V2.00 B2112,2013-05-21 17:43:00,
2013-05-21 13:48:00,79.6,71.3,29.96,NE,40,0.0,0.0,76,0.00,,,0.00,LWC V2.00 B2112,2013-05-21 17:48:00,
2013-05-21 13:53:00,79.6,71.0,29.96,NE,40,0.0,0.0,75,0.00,,,0.00,LWC V2.00 B2112,2013-05-21 17:53:00,
2013-05-21 13:58:00,79.6,71.3,29.96,ENE,64,0.0,0.0,76,0.00,,,0.00,LWC V2.00 B2112,2013-05-21 17:58:00,
2013-05-21 14:03:00,79.6,72.1,29.96,NNE,30,0.0,2.0,78,0.00,,,0.00,LWC V2.00 B2112,2013-05-21 18:03:00,
2013-05-21 14:08:00,79.6,71.3,29.96,NNE,30,0.0,0.0,76,0.00,,,0.00,LWC V2.00 B2112,2013-05-21 18:08:00,
2013-05-21 14:13:00,79.6,71.7,29.96,NNE,30,0.0,1.0,77,0.00,,,0.00,LWC V2.00 B2112,2013-05-21 18:13:00,
2013-05-21 14:18:00,79.8,71.5,29.96,ENE,58,0.0,0.0,76,0.00,,,0.00,LWC V2.00 B2112,2013-05-21 18:18:00,
2013-05-21 14:23:00,79.8,71.5,29.96,SE,128,0.0,1.0,76,0.00,,,0.00,LWC V2.00 B2112,2013-05-21 18:23:00,
2013-05-21 14:28:00,79.9,70.8,29.96,SE,135,0.0,1.0,74,0.00,,,0.00,LWC V2.00 B2112,2013-05-21 18:28:00,
2013-05-21 14:33:00,80.5,71.8,29.96,SE,135,0.0,0.0,75,0.00,,,0.00,LWC V2.00 B2112,2013-05-21 18:33:00,
2013-05-21 14:38:00,81.2,70.5,29.96,SE,135,0.0,0.0,70,0.00,,,0.00,LWC V2.00 B2112,2013-05-21 18:38:00,
2013-05-21 14:43:00,81.8,72.3,29.95,SSW,202,0.0,0.0,73,0.00,,,0.00,LWC V2.00 B2112,2013-05-21 18:43:00,
2013-05-21 14:48:00,82.4,72.4,29.95,ENE,72,0.0,1.0,72,0.00,,,0.00,LWC V2.00 B2112,2013-05-21 18:48:00,
2013-05-21 14:53:00,82.4,72.4,29.95,ENE,71,0.0,0.0,72,0.00,,,0.00,LWC V2.00 B2112,2013-05-21 18:53:00,
2013-05-21 14:58:00,82.8,71.1,29.95,ENE,69,0.0,0.0,68,0.00,,,0.00,LWC V2.00 B2112,2013-05-21 18:58:00,
2013-05-21 15:03:00,83.2,70.2,29.95,ENE,65,0.0,0.0,65,0.00,,,0.00,LWC V2.00 B2112,2013-05-21 19:03:00,
2013-05-21 15:08:00,83.6,69.6,29.95,NE,44,0.0,0.0,63,0.00,,,0.00,LWC V2.00 B2112,2013-05-21 19:08:00,
2013-05-21 15:13:00,83.2,71.5,29.94,NE,44,0.0,0.0,68,0.00,,,0.00,LWC V2.00 B2112,2013-05-21 19:13:00,
2013-05-21 15:18:00,82.4,70.8,29.94,NE,44,0.0,0.0,68,0.00,,,0.00,LWC V2.00 B2112,2013-05-21 19:18:00,
2013-05-21 15:23:00,82.8,70.3,29.94,NE,44,0.0,0.0,66,0.00,,,0.00,LWC V2.00 B2112,2013-05-21 19:23:00,
2013-05-21 15:28:00,83.6,69.6,29.93,NE,44,0.0,0.0,63,0.00,,,0.00,LWC V2.00 B2112,2013-05-21 19:28:00,
2013-05-21 15:33:00,84.0,70.5,29.93,NE,44,0.0,1.0,64,0.00,,,0.00,LWC V2.00 B2112,2013-05-21 19:33:00,
2013-05-21 15:38:00,83.8,71.2,29.93,NE,44,0.0,0.0,66,0.00,,,0.00,LWC V2.00 B2112,2013-05-21 19:38:00,
2013-05-21 15:43:00,83.4,72.1,29.92,NE,44,0.0,0.0,69,0.00,,,0.00,LWC V2.00 B2112,2013-05-21 19:43:00,
2013-05-21 15:48:00,83.0,71.3,29.92,NE,44,0.0,0.0,68,0.00,,,0.00,LWC V2.00 B2112,2013-05-21 19:48:00,
2013-05-21 15:53:00,83.0,71.3,29.92,NE,44,0.0,0.0,68,0.00,,,0.00,LWC V2.00 B2112,2013-05-21 19:53:00,
2013-05-21 15:58:00,83.0,71.3,29.92,NE,44,0.0,0.0,68,0.00,,,0.00,LWC V2.00 B2112,2013-05-21 19:58:00,
2013-05-21 16:03:00,82.8,73.2,29.92,NE,44,0.0,1.0,73,0.00,,,0.00,LWC V2.00 B2112,2013-05-21 20:03:00,
2013-05-21 16:08:00,82.4,72.4,29.92,NE,38,0.0,2.0,72,0.00,,,0.00,LWC V2.00 B2112,2013-05-21 20:08:00,
2013-05-21 16:13:00,81.6,71.7,29.92,NNE,32,0.0,2.0,72,0.00,,,0.00,LWC V2.00 B2112,2013-05-21 20:13:00,
2013-05-21 16:18:00,81.1,72.0,29.92,NNE,32,0.0,1.0,74,0.00,,,0.00,LWC V2.00 B2112,2013-05-21 20:18:00,
2013-05-21 16:23:00,80.7,71.6,29.92,NNE,32,0.0,0.0,74,0.00,,,0.00,LWC V2.00 B2112,2013-05-21 20:23:00,
2013-05-21 16:28:00,80.5,71.8,29.92,NE,34,0.0,0.0,75,0.00,,,0.00,LWC V2.00 B2112,2013-05-21 20:28:00,
2013-05-21 16:33:00,80.3,71.6,29.92,NE,34,0.0,1.0,75,0.00,,,0.00,LWC V2.00 B2112,2013-05-21 20:33:00,
2013-05-21 16:38:00,80.1,71.0,29.92,NNE,15,0.0,2.0,74,0.00,,,0.00,LWC V2.00 B2112,2013-05-21 20:38:00,
2013-05-21 16:43:00,79.6,69.3,29.92,WNW,289,0.0,1.0,71,0.00,,,0.00,LWC V2.00 B2112,2013-05-21 20:43:00,
2013-05-21 16:48:00,79.2,69.8,29.92,WNW,289,0.0,1.0,73,0.00,,,0.00,LWC V2.00 B2112,2013-05-21 20:48:00,
2013-05-21 16:53:00,79.0,68.8,29.92,WNW,289,0.0,0.0,71,0.00,,,0.00,LWC V2.00 B2112,2013-05-21 20:53:00,
2013-05-21 16:58:00,78.8,69.0,29.92,WNW,289,0.0,0.0,72,0.00,,,0.00,LWC V2.00 B2112,2013-05-21 20:58:00,
2013-05-21 17:03:00,78.6,68.8,29.92,WNW,289,0.0,0.0,72,0.00,,,0.00,LWC V2.00 B2112,2013-05-21 21:03:00,
2013-05-21 17:08:00,78.5,69.9,29.92,WNW,289,0.0,1.0,75,0.00,,,0.00,LWC V2.00 B2112,2013-05-21 21:08:00,
2013-05-21 17:13:00,78.5,69.5,29.92,WNW,289,0.0,0.0,74,0.00,,,0.00,LWC V2.00 B2112,2013-05-21 21:13:00,
2013-05-21 17:18:00,78.3,70.1,29.92,WNW,289,0.0,0.0,76,0.00,,,0.00,LWC V2.00 B2112,2013-05-21 21:18:00,
2013-05-21 17:23:00,78.1,69.5,29.92,WNW,289,0.0,0.0,75,0.00,,,0.00,LWC V2.00 B2112,2013-05-21 21:23:00,
2013-05-21 17:28:00,78.1,69.5,29.93,WNW,289,0.0,1.0,75,0.00,,,0.00,LWC V2.00 B2112,2013-05-21 21:28:00,
2013-05-21 17:33:00,77.9,69.3,29.93,WNW,289,0.0,2.0,75,0.00,,,0.00,LWC V2.00 B2112,2013-05-21 21:33:00,
2013-05-21 17:38:00,77.7,68.3,29.93,WNW,289,0.0,0.0,73,0.00,,,0.00,LWC V2.00 B2112,2013-05-21 21:38:00,
2013-05-21 17:43:00,77.6,67.4,29.93,WNW,289,0.0,0.0,71,0.00,,,0.00,LWC V2.00 B2112,2013-05-21 21:43:00,
2013-05-21 17:48:00,77.6,68.2,29.93,WNW,289,0.0,0.0,73,0.00,,,0.00,LWC V2.00 B2112,2013-05-21 21:48:00,
2013-05-21 17:53:00,77.6,67.8,29.93,WNW,289,0.0,1.0,72,0.00,,,0.00,LWC V2.00 B2112,2013-05-21 21:53:00,
2013-05-21 17:58:00,77.6,68.6,29.93,WNW,289,0.0,0.0,74,0.00,,,0.00,LWC V2.00 B2112,2013-05-21 21:58:00,
2013-05-21 18:03:00,77.6,68.6,29.93,WNW,289,0.0,0.0,74,0.00,,,0.00,LWC V2.00 B2112,2013-05-21 22:03:00,
2013-05-21 18:08:00,77.4,69.2,29.93,WNW,289,0.0,0.0,76,0.00,,,0.00,LWC V2.00 B2112,2013-05-21 22:08:00,
2013-05-21 18:13:00,77.0,69.2,29.93,WNW,289,0.0,0.0,77,0.00,,,0.00,LWC V2.00 B2112,2013-05-21 22:13:00,
2013-05-21 18:18:00,77.0,69.6,29.93,WNW,289,1.0,2.0,78,0.00,,,0.00,LWC V2.00 B2112,2013-05-21 22:18:00,
2013-05-21 18:23:00,76.8,69.4,29.93,WNW,289,0.0,1.0,78,0.00,,,0.00,LWC V2.00 B2112,2013-05-21 22:23:00,
2013-05-21 18:28:00,76.8,69.4,29.92,WNW,289,0.0,1.0,78,0.00,,,0.00,LWC V2.00 B2112,2013-05-21 22:28:00,
2013-05-21 18:33:00,76.7,69.3,29.92,WNW,289,0.0,0.0,78,0.00,,,0.00,LWC V2.00 B2112,2013-05-21 22:33:00,
2013-05-21 18:38:00,76.7,69.7,29.92,NNW,338,0.0,2.0,79,0.00,,,0.00,LWC V2.00 B2112,2013-05-21 22:38:00,
2013-05-21 18:43:00,76.5,69.5,29.91,NNW,338,0.0,1.0,79,0.00,,,0.00,LWC V2.00 B2112,2013-05-21 22:43:00,
2013-05-21 18:48:00,76.5,69.9,29.91,NNW,338,0.0,0.0,80,0.00,,,0.00,LWC V2.00 B2112,2013-05-21 22:48:00,
2013-05-21 18:53:00,76.5,69.9,29.91,NNW,338,0.0,0.0,80,0.00,,,0.00,LWC V2.00 B2112,2013-05-21 22:53:00,
2013-05-21 18:58:00,76.5,70.2,29.91,NNW,338,0.0,0.0,81,0.00,,,0.00,LWC V2.00 B2112,2013-05-21 22:58:00,
2013-05-21 19:03:00,76.3,70.0,29.91,NE,55,0.0,2.0,81,0.00,,,0.00,LWC V2.00 B2112,2013-05-21 23:03:00,
2013-05-21 19:08:00,76.3,70.4,29.91,NE,55,0.0,0.0,82,0.00,,,0.00,LWC V2.00 B2112,2013-05-21 23:08:00,
2013-05-21 19:13:00,76.1,69.8,29.91,NE,55,0.0,0.0,81,0.00,,,0.00,LWC V2.00 B2112,2013-05-21 23:13:00,
2013-05-21 19:18:00,76.1,70.2,29.91,NE,55,0.0,1.0,82,0.00,,,0.00,LWC V2.00 B2112,2013-05-21 23:18:00,
2013-05-21 19:23:00,76.0,69.7,29.91,NE,55,0.0,0.0,81,0.00,,,0.00,LWC V2.00 B2112,2013-05-21 23:23:00,
2013-05-21 19:28:00,76.0,70.1,29.92,NE,55,0.0,1.0,82,0.00,,,0.00,LWC V2.00 B2112,2013-05-21 23:28:00,
2013-05-21 19:33:00,76.0,70.1,29.92,NE,55,0.0,0.0,82,0.00,,,0.00,LWC V2.00 B2112,2013-05-21 23:33:00,
2013-05-21 19:38:00,75.8,69.9,29.92,NE,55,0.0,0.0,82,0.00,,,0.00,LWC V2.00 B2112,2013-05-21 23:38:00,
2013-05-21 19:43:00,75.8,69.9,29.91,NE,55,0.0,0.0,82,0.00,,,0.00,LWC V2.00 B2112,2013-05-21 23:43:00,
2013-05-21 19:48:00,75.6,70.1,29.91,NE,55,0.0,0.0,83,0.00,,,0.00,LWC V2.00 B2112,2013-05-21 23:48:00,
2013-05-21 19:53:00,75.6,70.1,29.91,NE,55,0.0,0.0,83,0.00,,,0.00,LWC V2.00 B2112,2013-05-21 23:53:00,
2013-05-21 19:58:00,75.4,70.2,29.92,NE,55,0.0,0.0,84,0.00,,,0.00,LWC V2.00 B2112,2013-05-21 23:58:00,
2013-05-21 20:03:00,75.3,69.8,29.92,NE,55,0.0,0.0,83,0.00,,,0.00,LWC V2.00 B2112,2013-05-22 00:03:00,
2013-05-21 20:08:00,74.9,69.0,29.92,NE,55,0.0,0.0,82,0.00,,,0.00,LWC V2.00 B2112,2013-05-22 00:08:00,
2013-05-21 20:13:00,74.7,68.8,29.91,NE,55,0.0,0.0,82,0.00,,,0.00,LWC V2.00 B2112,2013-05-22 00:13:00,
2013-05-21 20:18:00,74.6,69.1,29.91,NE,55,0.0,0.0,83,0.00,,,0.00,LWC V2.00 B2112,2013-05-22 00:18:00,
2013-05-21 20:23:00,74.6,69.4,29.91,NE,55,0.0,0.0,84,0.00,,,0.00,LWC V2.00 B2112,2013-05-22 00:23:00,
2013-05-21 20:28:00,74.4,69.2,29.91,NE,55,0.0,0.0,84,0.00,,,0.00,LWC V2.00 B2112,2013-05-22 00:28:00,
2013-05-21 20:33:00,74.0,68.8,29.91,NE,55,0.0,0.0,84,0.00,,,0.00,LWC V2.00 B2112,2013-05-22 00:33:00,
2013-05-21 20:38:00,73.9,68.4,29.91,NE,55,0.0,0.0,83,0.00,,,0.00,LWC V2.00 B2112,2013-05-22 00:38:00,
2013-05-21 20:43:00,73.7,68.2,29.91,NE,55,0.0,0.0,83,0.00,,,0.00,LWC V2.00 B2112,2013-05-22 00:43:00,
2013-05-21 20:48:00,73.5,68.4,29.91,NE,55,0.0,0.0,84,0.00,,,0.00,LWC V2.00 B2112,2013-05-22 00:48:00,
2013-05-21 20:53:00,73.2,68.1,29.91,NE,55,0.0,0.0,84,0.00,,,0.00,LWC V2.00 B2112,2013-05-22 00:53:00,
2013-05-21 20:58:00,73.0,67.9,29.91,NE,55,0.0,0.0,84,0.00,,,0.00,LWC V2.00 B2112,2013-05-22 00:58:00,
2013-05-21 21:03:00,72.8,67.7,29.91,NE,55,0.0,0.0,84,0.00,,,0.00,LWC V2.00 B2112,2013-05-22 01:03:00,
2013-05-21 21:08:00,72.7,67.6,29.91,NE,55,0.0,0.0,84,0.00,,,0.00,LWC V2.00 B2112,2013-05-22 01:08:00,
2013-05-21 21:13:00,72.7,67.9,29.91,NE,55,0.0,0.0,85,0.00,,,0.00,LWC V2.00 B2112,2013-05-22 01:13:00,
2013-05-21 21:18:00,72.5,67.7,29.91,NE,55,0.0,0.0,85,0.00,,,0.00,LWC V2.00 B2112,2013-05-22 01:18:00,
2013-05-21 21:23:00,72.3,67.5,29.91,NE,55,0.0,0.0,85,0.00,,,0.00,LWC V2.00 B2112,2013-05-22 01:23:00,
2013-05-21 21:28:00,72.1,67.3,29.93,NE,55,0.0,0.0,85,0.00,,,0.00,LWC V2.00 B2112,2013-05-22 01:28:00,
2013-05-21 21:33:00,72.1,67.3,29.93,NE,55,0.0,0.0,85,0.00,,,0.00,LWC V2.00 B2112,2013-05-22 01:33:00,
2013-05-21 21:38:00,72.0,67.2,29.93,NE,36,0.0,0.0,85,0.00,,,0.00,LWC V2.00 B2112,2013-05-22 01:38:00,
2013-05-21 21:43:00,71.8,67.4,29.93,NE,36,0.0,0.0,86,0.00,,,0.00,LWC V2.00 B2112,2013-05-22 01:43:00,
2013-05-21 21:48:00,71.8,67.4,29.93,NE,36,0.0,0.0,86,0.00,,,0.00,LWC V2.00 B2112,2013-05-22 01:48:00,
2013-05-21 21:53:00,71.6,67.2,29.93,NE,36,0.0,0.0,86,0.00,,,0.00,LWC V2.00 B2112,2013-05-22 01:53:00,
2013-05-21 21:58:00,71.5,67.4,29.93,NE,36,0.0,0.0,87,0.00,,,0.00,LWC V2.00 B2112,2013-05-22 01:58:00,
2013-05-21 22:03:00,71.3,67.2,29.93,NE,36,0.0,0.0,87,0.00,,,0.00,LWC V2.00 B2112,2013-05-22 02:03:00,
2013-05-21 22:08:00,71.3,67.2,29.93,NE,36,0.0,0.0,87,0.00,,,0.00,LWC V2.00 B2112,2013-05-22 02:08:00,
2013-05-21 22:13:00,71.1,67.0,29.94,NE,36,0.0,0.0,87,0.00,,,0.00,LWC V2.00 B2112,2013-05-22 02:13:00,
2013-05-21 22:18:00,71.1,67.4,29.94,NE,36,0.0,0.0,88,0.00,,,0.00,LWC V2.00 B2112,2013-05-22 02:18:00,
2013-05-21 22:23:00,71.1,67.4,29.94,NE,36,0.0,0.0,88,0.00,,,0.00,LWC V2.00 B2112,2013-05-22 02:23:00,
2013-05-21 22:28:00,70.9,67.2,29.94,NE,36,0.0,0.0,88,0.00,,,0.00,LWC V2.00 B2112,2013-05-22 02:28:00,
2013-05-21 22:30:00,70.9,67.2,29.94,NE,36,0.0,0.0,88,0.00,,,0.00,LWC V2.00 B2112,2013-05-22 02:30:00,
2013-05-21 22:35:00,70.8,67.1,29.94,NE,36,0.0,0.0,88,0.00,,,0.00,LWC V2.00 B2112,2013-05-22 02:35:00,
2013-05-21 22:40:00,70.8,67.1,29.94,NE,36,0.0,0.0,88,0.00,,,0.00,LWC V2.00 B2112,2013-05-22 02:40:00,
2013-05-21 22:45:00,70.8,67.4,29.94,NE,36,0.0,0.0,89,0.00,,,0.00,LWC V2.00 B2112,2013-05-22 02:45:00,
2013-05-21 22:50:00,70.6,67.2,29.94,NE,36,0.0,0.0,89,0.00,,,0.00,LWC V2.00 B2112,2013-05-22 02:50:00,
2013-05-21 22:55:00,70.4,67.0,29.95,NE,36,0.0,0.0,89,0.00,,,0.00,LWC V2.00 B2112,2013-05-22 02:55:00,
2013-05-21 23:00:00,70.4,67.0,29.95,NE,36,0.0,0.0,89,0.00,,,0.00,LWC V2.00 B2112,2013-05-22 03:00:00,
2013-05-21 23:05:00,70.3,66.9,29.95,NE,36,0.0,0.0,89,0.00,,,0.00,LWC V2.00 B2112,2013-05-22 03:05:00,
2013-05-21 23:10:00,70.3,66.9,29.95,NE,36,0.0,0.0,89,0.00,,,0.00,LWC V2.00 B2112,2013-05-22 03:10:00,
2013-05-21 23:15:00,70.3,66.9,29.95,NE,36,0.0,0.0,89,0.00,,,0.00,LWC V2.00 B2112,2013-05-22 03:15:00,
2013-05-21 23:20:00,70.1,67.0,29.95,NE,36,0.0,0.0,90,0.00,,,0.00,LWC V2.00 B2112,2013-05-22 03:20:00,
2013-05-21 23:25:00,70.1,67.0,29.95,NE,36,0.0,0.0,90,0.00,,,0.00,LWC V2.00 B2112,2013-05-22 03:25:00,
2013-05-21 23:30:00,69.9,66.8,29.95,NE,36,0.0,0.0,90,0.00,,,0.00,LWC V2.00 B2112,2013-05-22 03:30:00,
2013-05-21 23:35:00,69.9,67.1,29.95,NE,36,0.0,0.0,91,0.00,,,0.00,LWC V2.00 B2112,2013-05-22 03:35:00,
2013-05-21 23:40:00,69.8,67.0,29.95,NE,36,0.0,0.0,91,0.00,,,0.00,LWC V2.00 B2112,2013-05-22 03:40:00,
2013-05-21 23:45:00,69.8,67.0,29.95,NE,36,0.0,0.0,91,0.00,,,0.00,LWC V2.00 B2112,2013-05-22 03:45:00,
2013-05-21 23:50:00,69.8,67.0,29.95,NE,36,0.0,0.0,91,0.00,,,0.00,LWC V2.00 B2112,2013-05-22 03:50:00,
2013-05-21 23:55:00,69.6,67.2,29.96,NE,36,0.0,0.0,92,0.00,,,0.00,LWC V2.00 B2112,2013-05-22 03:55:00,